sensor_id;sensor_type;location;lat;lon;timestamp;pressure;altitude;pressure_sealevel;temperature;humidity
71565;BME280;59397;50.952;14.502;2023-07-29T00:15:04;966.16;;;15.01;100.00
71565;BME280;59397;50.952;14.502;2023-07-29T00:34:36;966.02;;;14.70;100.00
71565;BME280;59397;50.952;14.502;2023-07-29T00:54:09;965.97;;;14.67;100.00
71565;BME280;59397;50.952;14.502;2023-07-29T01:13:41;965.89;;;14.11;100.00
71565;BME280;59397;50.952;14.502;2023-07-29T01:33:16;965.79;;;14.44;100.00
71565;BME280;59397;50.952;14.502;2023-07-29T01:52:49;965.88;;;13.97;100.00
71565;BME280;59397;50.952;14.502;2023-07-29T02:12:22;965.83;;;13.79;100.00
71565;BME280;59397;50.952;14.502;2023-07-29T02:31:54;965.66;;;13.21;100.00
71565;BME280;59397;50.952;14.502;2023-07-29T02:51:28;965.74;;;13.50;100.00
71565;BME280;59397;50.952;14.502;2023-07-29T03:11:05;965.89;;;13.59;100.00
71565;BME280;59397;50.952;14.502;2023-07-29T03:30:36;966.02;;;13.42;100.00
71565;BME280;59397;50.952;14.502;2023-07-29T03:50:12;966.08;;;14.06;100.00
71565;BME280;59397;50.952;14.502;2023-07-29T04:09:49;966.20;;;14.65;100.00
71565;BME280;59397;50.952;14.502;2023-07-29T04:29:27;966.14;;;15.38;100.00
71565;BME280;59397;50.952;14.502;2023-07-29T04:49:02;966.15;;;-147.93;100.00
71565;BME280;59397;50.952;14.502;2023-07-29T05:08:38;966.01;;;16.69;100.00
71565;BME280;59397;50.952;14.502;2023-07-29T05:28:16;966.02;;;17.47;100.00
71565;BME280;59397;50.952;14.502;2023-07-29T05:47:53;966.05;;;17.95;100.00
71565;BME280;59397;50.952;14.502;2023-07-29T06:07:27;965.99;;;17.95;100.00
71565;BME280;59397;50.952;14.502;2023-07-29T06:27:04;965.84;;;18.88;100.00
71565;BME280;59397;50.952;14.502;2023-07-29T06:46:38;965.67;;;18.60;100.00
71565;BME280;59397;50.952;14.502;2023-07-29T07:06:13;965.74;;;19.15;99.80
71565;BME280;59397;50.952;14.502;2023-07-29T07:25:50;965.74;;;19.80;96.04
71565;BME280;59397;50.952;14.502;2023-07-29T07:45:23;965.82;;;19.85;96.33
71565;BME280;59397;50.952;14.502;2023-07-29T08:04:59;965.55;;;20.15;93.67
71565;BME280;59397;50.952;14.502;2023-07-29T08:24:36;965.14;;;21.10;91.44
71565;BME280;59397;50.952;14.502;2023-07-29T08:44:12;965.12;;;21.30;89.31
71565;BME280;59397;50.952;14.502;2023-07-29T09:03:44;965.12;;;20.49;90.29
71565;BME280;59397;50.952;14.502;2023-07-29T09:23:23;965.11;;;21.49;85.99
71565;BME280;59397;50.952;14.502;2023-07-29T09:42:58;965.01;;;22.15;84.17
71565;BME280;59397;50.952;14.502;2023-07-29T10:02:35;965.14;;;22.03;80.85
71565;BME280;59397;50.952;14.502;2023-07-29T10:22:10;965.04;;;22.10;79.78
71565;BME280;59397;50.952;14.502;2023-07-29T11:01:26;964.70;;;23.06;74.85
71565;BME280;59397;50.952;14.502;2023-07-29T11:20:56;964.51;;;23.21;74.19
71565;BME280;59397;50.952;14.502;2023-07-29T11:40:33;964.24;;;23.05;72.60
71565;BME280;59397;50.952;14.502;2023-07-29T12:00:07;964.25;;;22.30;74.44
71565;BME280;59397;50.952;14.502;2023-07-29T12:19:31;964.88;;;18.26;100.00
71565;BME280;59397;50.952;14.502;2023-07-29T12:58:47;964.11;;;19.72;99.93
71565;BME280;59397;50.952;14.502;2023-07-29T13:18:22;964.21;;;19.76;100.00
71565;BME280;59397;50.952;14.502;2023-07-29T13:37:58;963.92;;;20.85;98.58
71565;BME280;59397;50.952;14.502;2023-07-29T13:57:39;963.64;;;21.89;86.13
71565;BME280;59397;50.952;14.502;2023-07-29T14:17:15;963.66;;;22.30;83.72
71565;BME280;59397;50.952;14.502;2023-07-29T14:36:49;963.58;;;21.37;87.15
71565;BME280;59397;50.952;14.502;2023-07-29T14:56:19;964.03;;;20.09;100.00
71565;BME280;59397;50.952;14.502;2023-07-29T15:15:55;963.73;;;20.37;98.79
71565;BME280;59397;50.952;14.502;2023-07-29T15:35:29;963.67;;;20.90;99.02
71565;BME280;59397;50.952;14.502;2023-07-29T15:55:04;963.63;;;21.11;97.72
71565;BME280;59397;50.952;14.502;2023-07-29T16:14:40;963.40;;;21.59;94.46
71565;BME280;59397;50.952;14.502;2023-07-29T16:34:15;963.47;;;21.83;89.55
71565;BME280;59397;50.952;14.502;2023-07-29T16:53:50;963.67;;;21.41;95.92
71565;BME280;59397;50.952;14.502;2023-07-29T17:13:22;963.77;;;20.60;100.00
71565;BME280;59397;50.952;14.502;2023-07-29T17:32:55;964.58;;;19.83;81.64
71565;BME280;59397;50.952;14.502;2023-07-29T17:52:18;965.81;;;15.75;100.00
71565;BME280;59397;50.952;14.502;2023-07-29T18:11:50;965.53;;;15.39;100.00
71565;BME280;59397;50.952;14.502;2023-07-29T18:31:26;965.34;;;15.98;100.00
71565;BME280;59397;50.952;14.502;2023-07-29T18:50:57;965.29;;;15.74;100.00
71565;BME280;59397;50.952;14.502;2023-07-29T19:10:31;965.40;;;15.71;100.00
71565;BME280;59397;50.952;14.502;2023-07-29T19:30:04;965.35;;;15.23;100.00
71565;BME280;59397;50.952;14.502;2023-07-29T19:49:35;965.53;;;14.86;100.00
71565;BME280;59397;50.952;14.502;2023-07-29T20:09:08;965.55;;;14.63;100.00
71565;BME280;59397;50.952;14.502;2023-07-29T20:28:42;965.62;;;14.52;100.00
71565;BME280;59397;50.952;14.502;2023-07-29T20:48:16;965.68;;;14.34;100.00
71565;BME280;59397;50.952;14.502;2023-07-29T21:07:50;965.78;;;14.28;100.00
71565;BME280;59397;50.952;14.502;2023-07-29T21:27:24;965.83;;;14.20;100.00
71565;BME280;59397;50.952;14.502;2023-07-29T21:46:59;965.78;;;14.21;100.00
71565;BME280;59397;50.952;14.502;2023-07-29T22:06:31;965.93;;;13.85;100.00
71565;BME280;59397;50.952;14.502;2023-07-29T22:26:06;965.97;;;13.78;100.00
71565;BME280;59397;50.952;14.502;2023-07-29T22:45:40;966.02;;;13.64;100.00
71565;BME280;59397;50.952;14.502;2023-07-29T23:05:16;966.25;;;13.62;100.00
71565;BME280;59397;50.952;14.502;2023-07-29T23:24:50;966.34;;;13.44;100.00
71565;BME280;59397;50.952;14.502;2023-07-29T23:44:24;966.42;;;13.38;100.00
